Time;durP1;ratioP1;P1;durP2;ratioP2;P2;SDS_P1;SDS_P2;PMS_P1;PMS_P2;Temp;Humidity;BMP_temperature;BMP_pressure;BME280_temperature;BME280_humidity;BME280_pressure;Samples;Min_cycle;Max_cycle;Signal;HPM_P1;HPM_P2
2024/01/22 00:00:36;;;;;;;12.63;6.90;;;9.90;93.40;;;;;;5035203;28;20066;-75
2024/01/22 00:03:02;;;;;;;11.25;6.38;;;9.90;93.40;;;;;;5037987;28;20021;-74
2024/01/22 00:05:30;;;;;;;11.23;6.43;;;9.90;93.20;;;;;;5033424;28;20040;-75
2024/01/22 00:07:57;;;;;;;10.70;6.40;;;9.90;93.20;;;;;;5040202;28;20131;-75
2024/01/22 00:10:23;;;;;;;12.15;6.57;;;9.90;93.20;;;;;;5033393;28;20112;-74
2024/01/22 00:12:49;;;;;;;10.85;6.20;;;10.00;93.10;;;;;;5033133;28;20021;-75
2024/01/22 00:15:16;;;;;;;12.18;5.72;;;10.00;93.10;;;;;;5035284;28;20033;-75
2024/01/22 00:17:46;;;;;;;10.07;5.57;;;10.10;93.00;;;;;;5037254;28;20088;-81
2024/01/22 00:20:12;;;;;;;12.55;5.22;;;10.10;93.00;;;;;;5040585;28;20056;-77
2024/01/22 00:22:38;;;;;;;10.40;5.00;;;10.10;93.00;;;;;;5037795;28;20419;-74
2024/01/22 00:25:04;;;;;;;9.48;5.10;;;10.10;92.90;;;;;;5041313;28;20362;-74
2024/01/22 00:27:30;;;;;;;10.93;5.47;;;10.20;92.90;;;;;;5045131;28;20100;-74
2024/01/22 00:29:56;;;;;;;13.32;5.03;;;10.20;92.80;;;;;;5039287;28;20108;-74
2024/01/22 00:32:22;;;;;;;9.60;4.82;;;10.20;92.70;;;;;;5034903;28;20047;-74
2024/01/22 00:34:47;;;;;;;9.65;5.05;;;10.20;92.80;;;;;;5040411;28;20036;-75
2024/01/22 00:37:13;;;;;;;11.30;5.63;;;10.20;92.90;;;;;;5041980;28;20028;-75
2024/01/22 00:39:40;;;;;;;10.93;4.82;;;10.30;92.90;;;;;;5044725;28;20478;-74
2024/01/22 00:42:08;;;;;;;10.52;5.18;;;10.30;92.60;;;;;;5043221;28;20010;-74
2024/01/22 00:44:34;;;;;;;10.35;4.75;;;10.40;92.60;;;;;;5032675;28;20037;-74
2024/01/22 00:47:00;;;;;;;10.60;4.72;;;10.40;92.60;;;;;;5034399;28;20021;-75
2024/01/22 00:49:26;;;;;;;8.35;3.80;;;10.40;92.50;;;;;;5044464;28;20061;-74
2024/01/22 00:51:52;;;;;;;9.75;4.50;;;10.40;92.60;;;;;;5030006;28;20021;-74
2024/01/22 00:54:19;;;;;;;8.85;5.00;;;10.40;92.60;;;;;;5051987;28;20037;-74
2024/01/22 00:56:45;;;;;;;8.82;4.82;;;10.50;92.50;;;;;;5041066;28;20100;-74
2024/01/22 00:59:11;;;;;;;10.38;4.43;;;10.50;92.50;;;;;;5048714;28;20470;-75
2024/01/22 01:01:37;;;;;;;8.63;4.88;;;10.50;92.50;;;;;;5038546;28;20012;-75
2024/01/22 01:04:03;;;;;;;10.60;4.20;;;10.50;92.50;;;;;;5049853;28;20029;-74
2024/01/22 01:06:29;;;;;;;9.52;4.28;;;10.50;92.50;;;;;;5049942;28;20057;-74
2024/01/22 01:08:55;;;;;;;8.60;4.38;;;10.60;92.50;;;;;;5035033;28;20033;-74
2024/01/22 01:11:21;;;;;;;8.48;4.30;;;10.50;92.40;;;;;;5048675;28;20021;-74
2024/01/22 01:13:47;;;;;;;8.25;4.20;;;10.60;92.50;;;;;;5034842;28;20071;-75
2024/01/22 01:16:13;;;;;;;8.23;4.35;;;10.60;92.60;;;;;;5035979;28;20013;-74
2024/01/22 01:18:38;;;;;;;7.82;4.07;;;10.60;92.50;;;;;;5038059;28;20063;-74
2024/01/22 01:21:04;;;;;;;8.20;3.83;;;10.60;92.50;;;;;;5035458;28;20030;-74
2024/01/22 01:23:30;;;;;;;5.82;3.55;;;10.60;92.60;;;;;;5037981;28;20021;-75
2024/01/22 01:25:56;;;;;;;7.88;4.00;;;10.70;92.50;;;;;;5038554;28;20464;-74
2024/01/22 01:28:23;;;;;;;8.60;3.53;;;10.70;92.50;;;;;;5039242;28;20361;-76
2024/01/22 01:30:48;;;;;;;6.90;3.90;;;10.70;92.50;;;;;;5040626;28;20455;-75
2024/01/22 01:33:14;;;;;;;8.07;3.67;;;10.70;92.70;;;;;;5034348;28;20028;-74
2024/01/22 01:35:43;;;;;;;7.05;3.42;;;10.70;92.60;;;;;;5038206;28;21099;-75
2024/01/22 01:38:08;;;;;;;7.57;3.90;;;10.70;92.80;;;;;;5035601;28;20377;-74
2024/01/22 01:40:34;;;;;;;7.28;4.20;;;10.80;93.00;;;;;;5035361;28;20045;-74
2024/01/22 01:43:00;;;;;;;7.70;3.85;;;10.80;93.20;;;;;;5043237;28;20067;-74
2024/01/22 01:45:25;;;;;;;6.57;3.60;;;10.70;93.90;;;;;;5035205;28;20044;-74
2024/01/22 01:47:51;;;;;;;7.72;3.47;;;10.60;94.60;;;;;;5031850;28;20032;-75
2024/01/22 01:50:18;;;;;;;6.18;3.50;;;10.60;94.80;;;;;;5036957;28;20037;-74
2024/01/22 01:52:44;;;;;;;6.50;3.67;;;10.50;95.10;;;;;;5031496;28;20082;-74
2024/01/22 01:55:11;;;;;;;7.38;3.88;;;10.50;95.20;;;;;;5029736;28;20492;-75
2024/01/22 01:57:38;;;;;;;7.43;3.33;;;10.50;95.30;;;;;;5041393;28;20112;-74
2024/01/22 02:00:06;;;;;;;6.85;3.38;;;10.50;95.30;;;;;;5034316;28;20029;-74
2024/01/22 02:02:32;;;;;;;6.75;3.50;;;10.50;95.30;;;;;;5033887;28;20100;-75
2024/01/22 02:04:58;;;;;;;5.72;3.38;;;10.50;95.40;;;;;;5041658;28;20124;-74
2024/01/22 02:07:23;;;;;;;6.07;3.13;;;10.50;95.30;;;;;;5045058;28;20036;-75
2024/01/22 02:09:51;;;;;;;6.45;3.33;;;10.50;95.40;;;;;;5040715;28;20400;-74
2024/01/22 02:12:18;;;;;;;6.38;3.55;;;10.50;95.50;;;;;;5040149;28;20017;-74
2024/01/22 02:14:44;;;;;;;5.55;3.00;;;10.50;95.60;;;;;;5031793;28;20057;-75
2024/01/22 02:17:10;;;;;;;7.00;3.33;;;10.50;95.80;;;;;;5034179;28;20044;-74
2024/01/22 02:19:35;;;;;;;6.18;3.30;;;10.50;95.90;;;;;;5029819;28;20056;-74
2024/01/22 02:22:01;;;;;;;5.82;3.25;;;10.50;95.90;;;;;;5031194;28;20043;-78
2024/01/22 02:24:27;;;;;;;10.73;3.97;;;10.50;96.10;;;;;;5037881;28;20033;-74
2024/01/22 02:26:52;;;;;;;7.32;3.67;;;10.50;96.20;;;;;;5030982;28;20107;-74
2024/01/22 02:29:18;;;;;;;6.50;3.05;;;10.50;96.30;;;;;;5032141;28;20025;-77
2024/01/22 02:31:45;;;;;;;10.57;3.17;;;10.50;96.40;;;;;;5033332;28;20028;-74
2024/01/22 02:34:12;;;;;;;7.30;3.60;;;10.50;96.50;;;;;;5034994;28;20044;-74
2024/01/22 02:36:37;;;;;;;5.43;3.10;;;10.50;96.70;;;;;;5038666;28;20020;-74
2024/01/22 02:39:03;;;;;;;7.40;3.70;;;10.50;96.80;;;;;;5044443;28;20548;-74
2024/01/22 02:41:29;;;;;;;6.70;3.55;;;10.50;96.80;;;;;;5032384;28;20013;-74
2024/01/22 02:43:54;;;;;;;5.90;3.30;;;10.50;96.80;;;;;;5036287;28;20037;-74
2024/01/22 02:46:21;;;;;;;7.10;3.20;;;10.50;96.80;;;;;;5034964;28;20099;-75
2024/01/22 02:48:46;;;;;;;5.68;2.75;;;10.50;96.60;;;;;;5028968;28;20109;-74
2024/01/22 02:51:12;;;;;;;5.05;3.30;;;10.60;96.50;;;;;;5045156;28;20497;-74
2024/01/22 02:53:38;;;;;;;7.25;3.45;;;10.60;96.50;;;;;;5030656;28;20024;-74
2024/01/22 02:56:04;;;;;;;5.20;2.75;;;10.60;96.40;;;;;;5044174;28;20035;-74
2024/01/22 02:58:31;;;;;;;5.05;2.92;;;10.60;96.30;;;;;;5039650;28;20099;-75
2024/01/22 03:00:57;;;;;;;4.05;2.67;;;10.70;96.20;;;;;;5040616;28;20481;-74
2024/01/22 03:03:23;;;;;;;5.00;2.63;;;10.70;96.20;;;;;;5032085;28;20061;-78
2024/01/22 03:05:48;;;;;;;5.97;2.83;;;10.60;96.20;;;;;;5047713;28;20036;-74
2024/01/22 03:08:14;;;;;;;4.95;2.60;;;10.70;96.10;;;;;;5027703;28;20033;-74
2024/01/22 03:10:40;;;;;;;5.70;2.67;;;10.70;96.10;;;;;;5040588;28;20131;-74
2024/01/22 03:13:05;;;;;;;4.38;2.25;;;10.70;96.10;;;;;;5047027;28;20422;-74
2024/01/22 03:15:31;;;;;;;7.03;2.50;;;10.80;96.00;;;;;;5039115;28;20413;-74
2024/01/22 03:17:56;;;;;;;3.90;2.10;;;10.80;95.80;;;;;;5029543;28;20021;-74
2024/01/22 03:20:22;;;;;;;4.40;2.38;;;10.80;95.80;;;;;;5029246;28;20053;-77
2024/01/22 03:22:48;;;;;;;5.68;2.38;;;10.90;95.70;;;;;;5027400;28;20025;-74
2024/01/22 03:25:14;;;;;;;3.65;1.98;;;10.90;95.60;;;;;;5036445;28;20021;-74
2024/01/22 03:27:40;;;;;;;3.95;2.20;;;10.90;95.60;;;;;;5039128;28;20030;-74
2024/01/22 03:30:06;;;;;;;5.18;2.00;;;11.00;95.50;;;;;;5030584;28;20044;-74
2024/01/22 03:32:32;;;;;;;3.60;1.90;;;11.00;95.50;;;;;;5038426;28;20307;-77
2024/01/22 03:34:57;;;;;;;5.30;1.88;;;11.10;95.40;;;;;;5035037;28;20057;-74
2024/01/22 03:37:23;;;;;;;4.32;1.70;;;11.10;95.30;;;;;;5034449;28;20025;-74
2024/01/22 03:39:49;;;;;;;6.80;2.10;;;11.10;95.10;;;;;;5034014;28;20033;-81
2024/01/22 03:42:14;;;;;;;5.07;2.00;;;11.20;94.90;;;;;;5042130;28;20032;-74
2024/01/22 03:44:40;;;;;;;5.03;1.83;;;11.20;94.90;;;;;;5041718;28;20105;-75
2024/01/22 03:47:06;;;;;;;4.20;1.90;;;11.30;94.90;;;;;;5041860;28;20037;-74
2024/01/22 03:49:31;;;;;;;5.78;1.65;;;11.40;94.90;;;;;;5042353;28;20028;-74
2024/01/22 03:51:57;;;;;;;5.60;2.00;;;11.40;94.80;;;;;;5039090;28;20021;-73
2024/01/22 03:54:23;;;;;;;5.13;1.92;;;11.40;94.90;;;;;;5043560;28;20177;-74
2024/01/22 03:56:48;;;;;;;4.60;1.60;;;11.40;94.90;;;;;;5035882;28;20454;-74
2024/01/22 03:59:14;;;;;;;5.53;1.60;;;11.40;95.00;;;;;;5035864;28;20029;-80
2024/01/22 04:01:40;;;;;;;2.78;1.45;;;11.40;95.10;;;;;;5033315;28;20174;-74
2024/01/22 04:04:05;;;;;;;4.88;2.25;;;11.40;95.20;;;;;;5027965;28;20053;-75
2024/01/22 04:06:31;;;;;;;6.50;2.03;;;11.50;95.20;;;;;;5036491;28;20051;-74
2024/01/22 04:08:57;;;;;;;7.65;2.00;;;11.40;95.20;;;;;;5037083;28;20040;-75
2024/01/22 04:11:22;;;;;;;4.97;2.08;;;11.50;95.20;;;;;;5040131;28;20059;-75
2024/01/22 04:13:48;;;;;;;4.63;1.92;;;11.50;95.10;;;;;;5035569;28;20582;-74
2024/01/22 04:16:14;;;;;;;7.13;2.03;;;11.50;95.20;;;;;;5033956;28;20410;-74
2024/01/22 04:18:43;;;;;;;5.32;1.70;;;11.50;95.60;;;;;;5043319;28;20024;-79
2024/01/22 04:21:09;;;;;;;5.03;1.60;;;11.50;95.80;;;;;;5034738;28;20032;-74
2024/01/22 04:23:36;;;;;;;8.27;2.10;;;11.60;96.00;;;;;;5039689;28;20087;-75
2024/01/22 04:26:03;;;;;;;4.38;1.80;;;11.60;96.10;;;;;;5042615;28;20060;-74
2024/01/22 04:28:28;;;;;;;7.40;1.98;;;11.50;96.30;;;;;;5034096;28;20033;-74
2024/01/22 04:30:54;;;;;;;8.70;2.10;;;11.50;96.60;;;;;;5032351;28;20033;-75
2024/01/22 04:33:19;;;;;;;7.43;2.53;;;11.40;96.90;;;;;;5042636;28;20029;-74
2024/01/22 04:35:45;;;;;;;6.03;2.30;;;11.40;97.20;;;;;;5038243;28;20916;-74
2024/01/22 04:38:11;;;;;;;7.95;2.58;;;11.40;97.40;;;;;;5034890;28;20043;-74
2024/01/22 04:40:36;;;;;;;6.82;2.40;;;11.40;97.50;;;;;;5031446;28;20025;-79
2024/01/22 04:43:03;;;;;;;7.45;2.30;;;11.40;97.60;;;;;;5028709;28;20037;-74
2024/01/22 04:45:29;;;;;;;6.30;2.03;;;11.40;97.70;;;;;;5028693;28;20449;-74
2024/01/22 04:47:54;;;;;;;8.10;2.20;;;11.40;98.00;;;;;;5041768;28;20025;-74
2024/01/22 04:50:20;;;;;;;7.63;2.42;;;11.50;98.30;;;;;;5027308;28;20037;-74
2024/01/22 04:52:46;;;;;;;5.90;1.90;;;11.50;98.50;;;;;;5025967;28;20450;-74
2024/01/22 04:55:11;;;;;;;6.47;2.40;;;11.40;98.60;;;;;;5042408;28;20071;-74
2024/01/22 04:57:37;;;;;;;6.97;2.22;;;11.40;98.80;;;;;;5039234;28;20444;-74
2024/01/22 05:00:04;;;;;;;5.60;2.05;;;11.50;98.90;;;;;;5028890;28;20052;-74
2024/01/22 05:02:30;;;;;;;4.78;2.10;;;11.50;98.90;;;;;;5040321;28;20473;-83
2024/01/22 05:05:01;;;;;;;4.53;2.00;;;11.40;98.90;;;;;;5037593;28;20044;-75
2024/01/22 05:07:26;;;;;;;7.78;2.17;;;11.40;99.10;;;;;;5039655;28;20025;-78
2024/01/22 05:10:01;;;;;;;3.92;1.80;;;11.50;99.30;;;;;;5031297;28;20033;-74
2024/01/22 05:12:27;;;;;;;4.10;1.85;;;11.50;99.50;;;;;;5039334;28;20055;-74
2024/01/22 05:14:53;;;;;;;4.78;1.63;;;11.50;99.50;;;;;;5031300;28;20033;-75
2024/01/22 05:17:18;;;;;;;7.40;2.40;;;11.50;99.50;;;;;;5039223;28;20128;-74
2024/01/22 05:19:44;;;;;;;4.35;1.85;;;11.50;99.50;;;;;;5035713;28;20473;-74
2024/01/22 05:22:09;;;;;;;3.75;1.70;;;11.50;99.50;;;;;;5031084;28;20399;-75
2024/01/22 05:24:35;;;;;;;6.07;1.90;;;11.50;99.50;;;;;;5042676;28;20033;-74
2024/01/22 05:27:04;;;;;;;5.18;1.88;;;11.50;99.60;;;;;;5037833;28;20138;-83
2024/01/22 05:29:30;;;;;;;4.28;1.50;;;11.50;99.60;;;;;;5041393;28;20057;-74
2024/01/22 05:31:56;;;;;;;3.65;1.55;;;11.50;99.60;;;;;;5029595;28;20074;-75
2024/01/22 05:34:21;;;;;;;4.28;1.70;;;11.50;99.60;;;;;;5031354;28;20037;-75
2024/01/22 05:36:47;;;;;;;3.42;1.42;;;11.50;99.70;;;;;;5031111;28;20021;-75
2024/01/22 05:39:13;;;;;;;4.38;1.70;;;11.50;99.70;;;;;;5027832;28;20083;-74
2024/01/22 05:41:40;;;;;;;5.05;1.70;;;11.50;99.70;;;;;;5034559;28;20072;-79
2024/01/22 05:44:06;;;;;;;5.53;1.70;;;11.50;99.70;;;;;;5031095;28;20037;-75
2024/01/22 05:46:32;;;;;;;5.15;1.50;;;11.50;99.60;;;;;;5033944;28;20505;-74
2024/01/22 05:48:58;;;;;;;4.40;1.50;;;11.50;99.60;;;;;;5044593;28;20425;-75
2024/01/22 05:51:24;;;;;;;6.60;2.10;;;11.50;99.60;;;;;;5038924;28;20029;-77
2024/01/22 05:53:49;;;;;;;7.05;2.20;;;11.50;99.60;;;;;;5043646;28;20418;-74
2024/01/22 05:56:22;;;;;;;5.45;1.58;;;11.50;99.50;;;;;;5034364;28;20102;-74
2024/01/22 05:58:49;;;;;;;6.45;1.60;;;11.50;99.40;;;;;;5023103;28;21066;-74
2024/01/22 06:01:21;;;;;;;11.05;2.40;;;11.50;99.40;;;;;;5039261;28;20411;-74
2024/01/22 06:03:47;;;;;;;9.52;2.70;;;11.50;99.30;;;;;;5038889;28;21063;-73
2024/01/22 06:06:17;;;;;;;13.32;3.00;;;11.50;99.10;;;;;;5034972;28;20021;-77
2024/01/22 06:08:44;;;;;;;15.57;3.50;;;11.60;99.00;;;;;;5031146;28;20025;-79
2024/01/22 06:11:14;;;;;;;18.83;3.90;;;11.60;98.80;;;;;;5040799;28;20112;-73
2024/01/22 06:13:41;;;;;;;20.80;4.05;;;11.60;98.50;;;;;;5035062;28;20132;-73
2024/01/22 06:16:11;;;;;;;20.05;4.65;;;11.60;98.40;;;;;;5035001;28;20045;-73
2024/01/22 06:18:38;;;;;;;20.17;3.90;;;11.70;98.20;;;;;;5034820;28;20092;-73
2024/01/22 06:21:04;;;;;;;24.55;4.30;;;11.60;97.90;;;;;;5042687;28;20055;-72
2024/01/22 06:23:31;;;;;;;21.33;4.93;;;11.70;97.50;;;;;;5029208;28;20017;-73
2024/01/22 06:25:57;;;;;;;25.50;4.95;;;11.80;97.20;;;;;;5034631;28;20104;-73
2024/01/22 06:28:24;;;;;;;36.38;6.78;;;11.90;96.80;;;;;;5044138;28;20029;-73
2024/01/22 06:30:50;;;;;;;29.92;5.78;;;11.90;96.50;;;;;;5055599;28;20033;-73
2024/01/22 06:33:16;;;;;;;29.05;5.68;;;11.90;96.50;;;;;;5047520;28;20342;-73
2024/01/22 06:35:42;;;;;;;36.88;6.90;;;11.90;96.20;;;;;;5033270;28;20104;-77
2024/01/22 06:38:09;;;;;;;33.67;7.82;;;12.00;95.90;;;;;;5036452;28;20045;-73
2024/01/22 06:40:34;;;;;;;37.00;7.88;;;12.10;95.60;;;;;;5054920;28;20078;-73
2024/01/22 06:43:00;;;;;;;37.83;8.57;;;12.10;95.40;;;;;;5045349;28;20070;-73
2024/01/22 06:45:26;;;;;;;31.30;7.32;;;12.10;95.40;;;;;;5040353;28;20029;-72
2024/01/22 06:47:54;;;;;;;41.05;8.15;;;12.10;95.20;;;;;;5036765;28;20025;-73
2024/01/22 06:50:20;;;;;;;39.03;6.82;;;12.10;95.20;;;;;;5035761;28;20123;-73
2024/01/22 06:52:46;;;;;;;45.00;9.80;;;12.10;94.90;;;;;;5033974;28;20025;-73
2024/01/22 06:55:12;;;;;;;37.20;8.32;;;12.20;94.60;;;;;;5036917;28;20025;-72
2024/01/22 06:57:38;;;;;;;34.28;8.68;;;12.20;94.60;;;;;;5042308;28;20104;-71
2024/01/22 07:00:07;;;;;;;32.50;7.53;;;12.10;94.50;;;;;;5040399;28;20511;-71
2024/01/22 07:02:41;;;;;;;40.92;8.65;;;12.10;94.30;;;;;;5029949;28;20090;-73
2024/01/22 07:05:07;;;;;;;47.55;8.95;;;12.10;94.30;;;;;;5047916;28;20079;-72
2024/01/22 07:07:33;;;;;;;36.78;7.20;;;12.10;93.70;;;;;;5048107;28;20020;-73
2024/01/22 07:09:59;;;;;;;42.28;9.73;;;12.20;93.30;;;;;;5038882;28;20036;-72
2024/01/22 07:12:25;;;;;;;38.78;8.70;;;12.10;93.60;;;;;;5036823;28;20417;-71
2024/01/22 07:14:51;;;;;;;37.83;9.57;;;12.10;93.70;;;;;;5046364;28;20029;-72
2024/01/22 07:17:19;;;;;;;45.28;9.52;;;12.00;94.20;;;;;;5047453;28;20463;-71
2024/01/22 07:19:45;;;;;;;53.22;9.52;;;11.90;94.20;;;;;;5036425;28;20382;-72
2024/01/22 07:22:10;;;;;;;42.15;9.43;;;11.90;94.00;;;;;;5046670;28;20025;-72
2024/01/22 07:24:36;;;;;;;45.78;9.20;;;11.90;93.90;;;;;;5042410;28;20577;-73
2024/01/22 07:27:02;;;;;;;52.08;11.40;;;11.90;94.10;;;;;;5041751;28;20029;-72
2024/01/22 07:29:28;;;;;;;45.83;9.10;;;11.80;94.10;;;;;;5033719;28;20048;-72
2024/01/22 07:31:53;;;;;;;51.00;10.68;;;11.90;93.80;;;;;;5030565;28;20484;-72
2024/01/22 07:34:23;;;;;;;49.65;9.95;;;11.90;93.90;;;;;;5032214;28;20033;-72
2024/01/22 07:36:49;;;;;;;54.88;11.13;;;11.90;93.80;;;;;;5045612;28;20032;-72
2024/01/22 07:39:15;;;;;;;44.70;9.85;;;11.80;93.80;;;;;;5053376;28;20040;-72
2024/01/22 07:41:40;;;;;;;42.30;10.32;;;11.90;93.90;;;;;;5043997;28;20024;-72
2024/01/22 07:44:06;;;;;;;40.83;9.52;;;11.90;93.70;;;;;;5035047;28;20040;-72
2024/01/22 07:46:33;;;;;;;51.42;10.98;;;11.90;93.40;;;;;;5046072;28;20033;-72
2024/01/22 07:48:59;;;;;;;42.55;9.25;;;12.00;93.40;;;;;;5042414;28;20036;-72
2024/01/22 07:51:24;;;;;;;40.03;9.70;;;12.00;93.50;;;;;;5047315;28;20024;-72
2024/01/22 07:53:51;;;;;;;43.92;9.60;;;12.00;93.70;;;;;;5035231;28;20029;-72
2024/01/22 07:56:17;;;;;;;51.72;9.48;;;12.00;93.80;;;;;;5041406;28;20021;-72
2024/01/22 07:58:44;;;;;;;52.17;10.27;;;11.90;93.90;;;;;;5038384;28;20020;-72
2024/01/22 08:01:10;;;;;;;48.42;10.00;;;11.90;94.00;;;;;;5037298;28;20017;-73
2024/01/22 08:03:35;;;;;;;40.38;11.75;;;11.90;93.90;;;;;;5049550;28;20479;-76
2024/01/22 08:06:01;;;;;;;44.85;12.05;;;11.80;94.00;;;;;;5045070;28;20032;-72
2024/01/22 08:08:28;;;;;;;39.95;8.82;;;11.80;94.00;;;;;;5042839;28;20025;-73
2024/01/22 08:10:54;;;;;;;40.80;8.95;;;11.90;93.80;;;;;;5035015;28;20072;-72
2024/01/22 08:13:21;;;;;;;48.22;10.70;;;11.90;93.60;;;;;;5039820;28;20033;-72
2024/01/22 08:15:47;;;;;;;48.10;10.25;;;11.90;93.60;;;;;;5038646;28;20123;-72
2024/01/22 08:18:13;;;;;;;45.65;10.05;;;12.00;93.60;;;;;;5044453;28;20017;-72
2024/01/22 08:20:39;;;;;;;52.30;11.80;;;12.00;93.30;;;;;;5048217;28;20031;-71
2024/01/22 08:23:06;;;;;;;47.22;10.30;;;12.00;93.20;;;;;;5046807;28;20110;-73
2024/01/22 08:25:32;;;;;;;48.35;10.27;;;12.00;93.60;;;;;;5041844;28;20037;-72
2024/01/22 08:27:58;;;;;;;47.75;9.55;;;12.00;93.80;;;;;;5037811;28;20060;-73
2024/01/22 08:30:24;;;;;;;52.50;10.57;;;12.00;93.90;;;;;;5034465;28;20473;-73
2024/01/22 08:32:51;;;;;;;49.97;11.02;;;11.90;93.90;;;;;;5044017;28;20131;-73
2024/01/22 08:35:18;;;;;;;51.30;10.70;;;11.90;94.00;;;;;;5046202;28;20052;-74
2024/01/22 08:37:52;;;;;;;58.05;11.02;;;11.90;94.20;;;;;;5045039;28;20450;-73
2024/01/22 08:40:21;;;;;;;56.55;10.93;;;11.90;94.20;;;;;;5035473;28;20037;-74
2024/01/22 08:42:51;;;;;;;48.10;11.35;;;11.90;94.60;;;;;;5034070;28;20024;-72
2024/01/22 08:45:17;;;;;;;52.33;10.23;;;11.80;94.90;;;;;;5032648;28;20046;-73
2024/01/22 08:47:46;;;;;;;53.28;11.20;;;11.80;95.10;;;;;;5033526;28;20029;-73
2024/01/22 08:50:21;;;;;;;40.80;10.85;;;11.70;95.10;;;;;;5043218;28;20051;-72
2024/01/22 08:52:47;;;;;;;52.85;10.82;;;11.70;95.10;;;;;;5044625;28;20138;-73
2024/01/22 08:55:14;;;;;;;46.28;10.43;;;11.70;95.30;;;;;;5050253;28;20044;-73
2024/01/22 08:57:40;;;;;;;41.17;10.73;;;11.70;95.20;;;;;;5049711;28;20032;-73
2024/01/22 09:00:10;;;;;;;47.15;10.75;;;11.70;95.30;;;;;;5050627;28;20033;-79
2024/01/22 09:02:42;;;;;;;50.80;10.90;;;11.60;95.40;;;;;;5044120;28;20040;-74
2024/01/22 09:05:11;;;;;;;47.03;10.05;;;11.60;95.40;;;;;;5053166;28;20029;-73
2024/01/22 09:07:38;;;;;;;54.13;11.40;;;11.60;95.50;;;;;;5053367;28;20055;-74
2024/01/22 09:10:08;;;;;;;55.28;11.00;;;11.60;95.70;;;;;;5051564;28;20056;-73
2024/01/22 09:12:34;;;;;;;49.78;10.02;;;11.60;95.80;;;;;;5034039;28;20039;-72
2024/01/22 09:15:04;;;;;;;44.13;10.20;;;11.50;95.90;;;;;;5033458;28;20043;-73
2024/01/22 09:17:31;;;;;;;40.55;9.38;;;11.50;96.00;;;;;;5034510;28;20017;-72
2024/01/22 09:19:57;;;;;;;43.55;9.65;;;11.50;96.20;;;;;;5033570;28;20084;-74
2024/01/22 09:22:23;;;;;;;47.17;10.07;;;11.50;96.20;;;;;;5032213;28;20025;-75
2024/01/22 09:24:50;;;;;;;41.65;9.25;;;11.50;96.10;;;;;;5033171;28;20025;-74
2024/01/22 09:27:16;;;;;;;43.08;8.77;;;11.50;95.90;;;;;;5044508;28;20035;-74
2024/01/22 09:29:42;;;;;;;41.47;9.23;;;11.50;95.90;;;;;;5044721;28;20495;-74
2024/01/22 09:32:09;;;;;;;47.45;9.77;;;11.50;95.80;;;;;;5041372;28;20116;-75
2024/01/22 09:34:36;;;;;;;46.70;9.52;;;11.40;95.70;;;;;;5037462;28;20060;-74
2024/01/22 09:37:01;;;;;;;42.65;9.68;;;11.40;95.60;;;;;;5056040;28;20052;-74
2024/01/22 09:39:27;;;;;;;47.08;10.38;;;11.50;95.50;;;;;;5040241;28;20334;-74
2024/01/22 09:41:53;;;;;;;45.55;9.60;;;11.50;95.00;;;;;;5053101;28;20021;-73
2024/01/22 09:44:21;;;;;;;35.42;9.23;;;11.50;94.90;;;;;;5052197;28;20033;-73
2024/01/22 09:46:47;;;;;;;41.55;9.95;;;11.50;94.50;;;;;;5052710;28;20033;-73
2024/01/22 09:49:13;;;;;;;45.00;10.18;;;11.50;94.00;;;;;;5048796;28;20027;-74
2024/01/22 09:51:44;;;;;;;41.55;10.27;;;11.50;93.50;;;;;;5052677;28;20017;-75
2024/01/22 09:54:18;;;;;;;42.92;10.02;;;11.50;93.30;;;;;;5052672;28;20029;-74
2024/01/22 09:56:51;;;;;;;49.35;10.63;;;11.50;93.30;;;;;;5053327;28;20021;-73
2024/01/22 09:59:20;;;;;;;50.10;10.35;;;11.50;92.90;;;;;;5052097;28;20060;-73
2024/01/22 10:01:50;;;;;;;46.20;10.95;;;11.50;92.60;;;;;;5052853;28;20053;-74
2024/01/22 10:04:17;;;;;;;43.55;10.07;;;11.50;92.30;;;;;;5052952;28;20107;-73
2024/01/22 10:06:45;;;;;;;43.60;10.32;;;11.40;92.30;;;;;;5060730;28;20047;-73
2024/01/22 10:09:15;;;;;;;47.50;11.00;;;11.40;92.10;;;;;;5056444;28;20053;-73
2024/01/22 10:11:46;;;;;;;51.00;11.45;;;11.40;91.90;;;;;;5052352;28;20384;-73
2024/01/22 10:14:13;;;;;;;39.95;10.57;;;11.40;91.60;;;;;;5052856;28;20040;-73
2024/01/22 10:16:38;;;;;;;47.65;11.80;;;11.40;91.50;;;;;;5058839;28;20024;-74
2024/01/22 10:19:07;;;;;;;44.42;9.63;;;11.40;91.40;;;;;;5059534;28;20035;-73
2024/01/22 10:21:33;;;;;;;41.80;11.00;;;11.40;91.20;;;;;;5057688;28;20048;-74
2024/01/22 10:24:01;;;;;;;41.92;10.00;;;11.40;91.10;;;;;;5058417;28;20033;-73
2024/01/22 10:26:28;;;;;;;45.60;10.75;;;11.30;91.30;;;;;;5050360;28;20025;-78
2024/01/22 10:28:54;;;;;;;45.17;10.50;;;11.30;90.80;;;;;;5040966;28;20410;-73
2024/01/22 10:31:20;;;;;;;46.00;9.93;;;11.20;90.70;;;;;;5042639;28;20387;-73
2024/01/22 10:33:46;;;;;;;40.10;8.13;;;11.20;90.50;;;;;;5046967;28;20028;-73
2024/01/22 10:36:17;;;;;;;37.70;8.75;;;11.10;90.30;;;;;;5038508;28;20482;-74
2024/01/22 10:38:48;;;;;;;43.05;7.55;;;11.10;90.30;;;;;;5041784;28;20504;-74
2024/01/22 10:41:19;;;;;;;34.10;9.27;;;11.10;89.40;;;;;;5058373;28;20018;-73
2024/01/22 10:43:45;;;;;;;34.30;7.75;;;11.00;89.30;;;;;;5038114;28;20029;-73
2024/01/22 10:46:12;;;;;;;35.92;8.30;;;11.00;89.00;;;;;;5040408;28;20043;-77
2024/01/22 10:48:38;;;;;;;36.47;8.45;;;10.90;88.80;;;;;;5034535;28;20025;-73
2024/01/22 10:51:05;;;;;;;34.58;7.72;;;11.00;88.70;;;;;;5043331;28;20029;-73
2024/01/22 10:53:32;;;;;;;32.88;7.45;;;11.00;88.30;;;;;;5039906;28;20092;-74
2024/01/22 10:56:01;;;;;;;32.70;7.15;;;11.10;87.90;;;;;;5041469;28;20033;-73
2024/01/22 10:58:38;;;;;;;31.10;7.00;;;11.30;87.30;;;;;;5029356;28;20021;-72
2024/01/22 11:01:21;;;;;;;36.47;7.10;;;11.50;86.80;;;;;;5035653;28;20037;-73
2024/01/22 11:03:53;;;;;;;29.05;6.80;;;11.60;85.90;;;;;;5030948;28;20014;-74
2024/01/22 11:06:23;;;;;;;25.75;7.18;;;11.80;85.90;;;;;;5036889;28;20088;-73
2024/01/22 11:08:50;;;;;;;29.00;6.25;;;11.80;85.00;;;;;;5035854;28;20147;-73
2024/01/22 11:11:21;;;;;;;26.50;6.22;;;11.80;84.50;;;;;;5030826;28;20526;-74
2024/01/22 11:13:51;;;;;;;34.70;6.95;;;11.80;84.50;;;;;;5035669;28;20021;-73
2024/01/22 11:16:18;;;;;;;34.90;6.30;;;12.00;84.20;;;;;;5037017;28;20450;-73
2024/01/22 11:18:58;;;;;;;26.35;6.45;;;12.20;83.90;;;;;;5033298;28;20022;-74
2024/01/22 11:21:25;;;;;;;31.42;6.32;;;12.20;83.10;;;;;;5029263;28;20454;-73
2024/01/22 11:24:14;;;;;;;28.10;6.82;;;12.30;82.80;;;;;;5044809;28;20098;-73
2024/01/22 11:27:04;;;;;;;29.13;6.15;;;12.40;82.50;;;;;;5043819;28;20108;-73
2024/01/22 11:29:32;;;;;;;31.13;6.70;;;12.40;82.40;;;;;;5047889;28;20417;-73
2024/01/22 11:32:26;;;;;;;27.33;6.65;;;12.40;81.80;;;;;;5055358;28;20013;-73
2024/01/22 11:35:00;;;;;;;28.60;5.47;;;12.50;82.10;;;;;;5035563;28;20037;-73
2024/01/22 11:37:34;;;;;;;29.98;6.40;;;12.40;81.40;;;;;;5043628;28;20386;-73
2024/01/22 11:40:00;;;;;;;30.48;6.43;;;12.40;81.50;;;;;;5049739;28;20097;-74
2024/01/22 11:42:28;;;;;;;29.95;6.28;;;12.30;81.40;;;;;;5036675;28;20529;-74
2024/01/22 11:44:55;;;;;;;34.95;6.35;;;12.20;81.40;;;;;;5036364;28;20054;-74
2024/01/22 11:47:22;;;;;;;27.60;6.28;;;12.20;81.50;;;;;;5043663;28;20052;-73
2024/01/22 11:49:49;;;;;;;29.77;6.70;;;12.20;81.60;;;;;;5051098;28;20021;-73
2024/01/22 11:52:16;;;;;;;24.45;5.90;;;12.00;81.90;;;;;;5050245;28;20513;-73
2024/01/22 11:54:52;;;;;;;36.30;7.72;;;11.80;82.60;;;;;;5054088;28;20174;-73
2024/01/22 11:57:18;;;;;;;36.88;6.60;;;11.70;83.30;;;;;;5067952;28;20525;-73
2024/01/22 12:00:11;;;;;;;26.42;6.00;;;11.60;83.60;;;;;;5045045;28;20025;-74
2024/01/22 12:02:44;;;;;;;28.55;6.07;;;11.60;82.70;;;;;;5035246;28;20040;-73
2024/01/22 12:05:12;;;;;;;26.92;6.32;;;11.80;82.40;;;;;;5038932;28;20022;-74
2024/01/22 12:07:43;;;;;;;28.92;5.85;;;11.80;82.20;;;;;;5049772;28;20025;-74
2024/01/22 12:10:21;;;;;;;31.85;6.70;;;12.00;80.90;;;;;;5028793;28;20695;-74
2024/01/22 12:12:50;;;;;;;28.27;5.95;;;12.10;80.90;;;;;;5043130;28;20040;-72
2024/01/22 12:15:16;;;;;;;28.13;5.93;;;12.10;81.00;;;;;;5049463;28;20037;-73
2024/01/22 12:17:45;;;;;;;32.90;7.13;;;12.10;80.10;;;;;;5047708;28;20373;-73
2024/01/22 12:20:12;;;;;;;28.85;6.18;;;12.10;80.30;;;;;;5036055;28;20431;-73
2024/01/22 12:22:38;;;;;;;34.05;5.95;;;12.10;80.50;;;;;;5046334;28;20032;-72
2024/01/22 12:25:08;;;;;;;35.03;6.93;;;12.10;80.10;;;;;;5041117;28;20044;-78
2024/01/22 12:27:35;;;;;;;24.65;5.30;;;12.10;80.20;;;;;;5036508;28;20067;-73
2024/01/22 12:30:08;;;;;;;29.52;6.60;;;12.20;80.20;;;;;;5023740;28;20041;-73
2024/01/22 12:32:37;;;;;;;39.08;6.47;;;12.20;80.10;;;;;;5041036;28;20467;-74
2024/01/22 12:35:03;;;;;;;30.17;6.40;;;12.10;80.50;;;;;;5038617;28;20068;-73
2024/01/22 12:37:31;;;;;;;25.85;5.82;;;12.20;80.20;;;;;;5040473;28;20017;-73
2024/01/22 12:40:06;;;;;;;32.25;6.93;;;12.20;80.10;;;;;;5030937;28;20358;-72